Time;durP1;ratioP1;P1;durP2;ratioP2;P2;SDS_P1;SDS_P2;PMS_P1;PMS_P2;Temp;Humidity;BMP_temperature;BMP_pressure;BME280_temperature;BME280_humidity;BME280_pressure;Samples;Min_cycle;Max_cycle;Signal;HPM_P1;HPM_P2
2022/03/08 00:01:14;;;;;;;2.20;2.10;;;;;;;;;;5034893;28;20252;-78
2022/03/08 00:03:43;;;;;;;2.42;2.22;;;;;;;;;;5034691;28;20580;-80
2022/03/08 00:06:10;;;;;;;2.33;2.13;;;;;;;;;;5034493;28;20206;-80
2022/03/08 00:08:38;;;;;;;2.67;2.47;;;;;;;;;;5034727;28;20280;-79
2022/03/08 00:11:05;;;;;;;2.90;2.58;;;;;;;;;;5034728;28;20210;-78
2022/03/08 00:13:32;;;;;;;3.00;2.70;;;;;;;;;;5034814;28;20226;-78
2022/03/08 00:16:00;;;;;;;2.95;2.75;;;;;;;;;;5034244;28;20252;-79
2022/03/08 00:18:27;;;;;;;3.25;2.95;;;;;;;;;;5034641;28;20229;-78
2022/03/08 00:20:56;;;;;;;2.90;2.70;;;;;;;;;;5034336;28;20198;-78
2022/03/08 00:23:23;;;;;;;3.00;2.70;;;;;;;;;;5034420;28;20210;-78
2022/03/08 00:25:50;;;;;;;3.03;2.75;;;;;;;;;;5034681;28;20213;-80
2022/03/08 00:28:18;;;;;;;2.83;2.63;;;;;;;;;;5034562;28;20227;-78
2022/03/08 00:30:45;;;;;;;3.28;2.85;;;;;;;;;;5033801;28;20217;-78
2022/03/08 00:33:13;;;;;;;6.00;4.38;;;;;;;;;;5033986;28;20257;-79
2022/03/08 00:35:40;;;;;;;7.00;3.50;;;;;;;;;;5034540;28;20257;-78
2022/03/08 00:38:09;;;;;;;10.95;3.88;;;;;;;;;;5034543;28;20230;-78
2022/03/08 00:40:36;;;;;;;3.55;2.63;;;;;;;;;;5034292;28;20202;-78
2022/03/08 00:43:04;;;;;;;3.65;3.33;;;;;;;;;;5033793;28;20217;-78
2022/03/08 00:45:31;;;;;;;2.80;2.60;;;;;;;;;;5034001;28;20205;-80
2022/03/08 00:47:58;;;;;;;3.42;2.22;;;;;;;;;;5034214;28;20222;-78
2022/03/08 00:50:29;;;;;;;3.40;2.55;;;;;;;;;;5033848;28;20198;-78
2022/03/08 00:52:58;;;;;;;2.38;2.17;;;;;;;;;;5033261;28;20720;-78
2022/03/08 00:55:29;;;;;;;2.95;2.65;;;;;;;;;;5034286;28;20261;-78
2022/03/08 00:57:57;;;;;;;2.80;2.60;;;;;;;;;;5034409;28;20594;-80
2022/03/08 01:00:27;;;;;;;2.72;2.53;;;;;;;;;;5033699;28;20264;-78
2022/03/08 01:02:55;;;;;;;3.13;2.88;;;;;;;;;;5033560;28;20209;-78
2022/03/08 01:05:22;;;;;;;3.55;3.25;;;;;;;;;;5034229;28;20249;-78
2022/03/08 01:07:49;;;;;;;3.50;3.20;;;;;;;;;;5033326;28;20222;-79
2022/03/08 01:10:19;;;;;;;3.40;3.17;;;;;;;;;;5034164;28;20206;-78
2022/03/08 01:12:49;;;;;;;3.33;3.03;;;;;;;;;;5033359;28;20226;-78
2022/03/08 01:15:17;;;;;;;3.05;2.85;;;;;;;;;;5033794;28;20264;-78
2022/03/08 01:17:45;;;;;;;3.70;3.28;;;;;;;;;;5033587;28;20226;-78
2022/03/08 01:20:14;;;;;;;4.18;3.65;;;;;;;;;;5033873;28;20202;-78
2022/03/08 01:22:42;;;;;;;3.10;2.90;;;;;;;;;;5033173;28;20269;-80
2022/03/08 01:25:11;;;;;;;3.40;3.10;;;;;;;;;;5033783;28;20202;-78
2022/03/08 01:27:39;;;;;;;3.33;3.05;;;;;;;;;;5033144;28;20206;-78
2022/03/08 01:30:12;;;;;;;4.35;3.95;;;;;;;;;;5032833;28;20222;-78
2022/03/08 01:32:40;;;;;;;3.72;3.25;;;;;;;;;;5033674;28;20252;-79
2022/03/08 01:35:09;;;;;;;3.92;3.63;;;;;;;;;;5033750;28;20202;-80
2022/03/08 01:37:36;;;;;;;4.90;4.15;;;;;;;;;;5033326;28;20203;-79
2022/03/08 01:40:05;;;;;;;3.92;3.63;;;;;;;;;;5033445;28;20641;-80
2022/03/08 01:42:33;;;;;;;4.10;3.78;;;;;;;;;;5032832;28;20206;-78
2022/03/08 01:45:01;;;;;;;4.65;4.25;;;;;;;;;;5033292;28;20260;-78
2022/03/08 01:47:30;;;;;;;4.10;3.78;;;;;;;;;;5033031;28;20202;-80
2022/03/08 01:49:57;;;;;;;4.15;3.65;;;;;;;;;;5032837;28;20198;-78
2022/03/08 01:52:26;;;;;;;4.00;3.67;;;;;;;;;;5032754;28;20203;-79
2022/03/08 01:54:54;;;;;;;4.55;4.15;;;;;;;;;;5032899;28;20210;-78
2022/03/08 01:57:25;;;;;;;4.00;3.70;;;;;;;;;;5033132;28;20206;-78
2022/03/08 01:59:54;;;;;;;5.07;4.25;;;;;;;;;;5033835;28;20210;-80
2022/03/08 02:02:22;;;;;;;4.30;3.90;;;;;;;;;;5032852;28;20616;-78
2022/03/08 02:04:52;;;;;;;4.22;3.67;;;;;;;;;;5033313;28;20201;-78
2022/03/08 02:07:19;;;;;;;3.00;2.80;;;;;;;;;;5032297;28;20253;-78
2022/03/08 02:09:46;;;;;;;3.42;3.13;;;;;;;;;;5032817;28;20226;-79
2022/03/08 02:12:14;;;;;;;4.70;3.97;;;;;;;;;;5031791;28;20202;-79
2022/03/08 02:14:42;;;;;;;4.47;4.07;;;;;;;;;;5033327;28;20222;-78
2022/03/08 02:17:10;;;;;;;4.88;4.28;;;;;;;;;;5033037;28;20298;-78
2022/03/08 02:19:37;;;;;;;3.35;3.05;;;;;;;;;;5032922;28;20233;-78
2022/03/08 02:22:06;;;;;;;3.83;3.53;;;;;;;;;;5032500;28;20198;-80
2022/03/08 02:24:33;;;;;;;3.53;3.22;;;;;;;;;;5033331;28;20602;-78
2022/03/08 02:27:01;;;;;;;3.53;3.22;;;;;;;;;;5038084;28;20206;-78
2022/03/08 02:29:29;;;;;;;4.50;4.03;;;;;;;;;;5037534;28;20234;-79
2022/03/08 02:31:57;;;;;;;3.80;3.17;;;;;;;;;;5037476;28;20210;-78
2022/03/08 02:34:24;;;;;;;3.88;3.58;;;;;;;;;;5038226;28;20632;-78
2022/03/08 02:37:00;;;;;;;3.78;3.45;;;;;;;;;;5037936;28;20229;-80
2022/03/08 02:39:29;;;;;;;4.63;4.20;;;;;;;;;;5038593;28;20221;-78
2022/03/08 02:41:56;;;;;;;3.42;3.13;;;;;;;;;;5038231;28;20202;-78
2022/03/08 02:44:24;;;;;;;4.53;4.10;;;;;;;;;;5033411;28;20198;-79
2022/03/08 02:46:52;;;;;;;4.80;4.40;;;;;;;;;;5032576;28;20202;-79
2022/03/08 02:49:20;;;;;;;4.63;4.28;;;;;;;;;;5032237;28;20264;-79
2022/03/08 02:51:47;;;;;;;4.38;3.70;;;;;;;;;;5031572;28;20209;-79
2022/03/08 02:54:14;;;;;;;4.05;3.75;;;;;;;;;;5031990;28;20714;-79
2022/03/08 02:56:43;;;;;;;5.38;4.88;;;;;;;;;;5032148;28;20254;-79
2022/03/08 02:59:10;;;;;;;5.25;4.78;;;;;;;;;;5031230;28;20730;-78
2022/03/08 03:01:37;;;;;;;5.25;4.55;;;;;;;;;;5033913;28;20257;-80
2022/03/08 03:04:05;;;;;;;4.50;3.83;;;;;;;;;;5035860;28;20199;-78
2022/03/08 03:06:35;;;;;;;4.80;4.40;;;;;;;;;;5036483;28;20663;-78
2022/03/08 03:09:03;;;;;;;5.53;4.60;;;;;;;;;;5038397;28;20218;-78
2022/03/08 03:11:30;;;;;;;6.20;5.60;;;;;;;;;;5038017;28;20230;-79
2022/03/08 03:13:59;;;;;;;5.07;4.38;;;;;;;;;;5037037;28;20248;-77
2022/03/08 03:16:27;;;;;;;5.75;5.03;;;;;;;;;;5037603;28;20209;-77
2022/03/08 03:18:54;;;;;;;6.95;6.05;;;;;;;;;;5034098;28;20280;-80
2022/03/08 03:21:21;;;;;;;6.63;5.97;;;;;;;;;;5032433;28;20256;-79
2022/03/08 03:23:48;;;;;;;5.80;5.30;;;;;;;;;;5031123;28;20195;-79
2022/03/08 03:26:16;;;;;;;5.95;5.45;;;;;;;;;;5035035;28;20260;-79
2022/03/08 03:28:43;;;;;;;6.00;5.45;;;;;;;;;;5034196;28;20288;-79
2022/03/08 03:31:11;;;;;;;6.07;5.45;;;;;;;;;;5035273;28;20272;-80
2022/03/08 03:33:39;;;;;;;7.22;5.15;;;;;;;;;;5034104;28;20215;-79
2022/03/08 03:36:06;;;;;;;5.47;4.97;;;;;;;;;;5034787;28;20252;-79
2022/03/08 03:38:34;;;;;;;6.60;5.97;;;;;;;;;;5034059;28;20876;-79
2022/03/08 03:41:01;;;;;;;6.97;5.80;;;;;;;;;;5034892;28;20601;-79
2022/03/08 03:43:28;;;;;;;6.47;5.38;;;;;;;;;;5034157;28;20210;-78
2022/03/08 03:45:56;;;;;;;4.78;4.28;;;;;;;;;;5035019;28;20272;-79
2022/03/08 03:48:24;;;;;;;6.28;5.53;;;;;;;;;;5034494;28;20222;-80
2022/03/08 03:50:51;;;;;;;6.25;4.90;;;;;;;;;;5034651;28;20206;-79
2022/03/08 03:53:19;;;;;;;7.63;6.43;;;;;;;;;;5033743;28;20264;-79
2022/03/08 03:55:46;;;;;;;7.03;6.32;;;;;;;;;;5034223;28;20297;-79
2022/03/08 03:58:13;;;;;;;6.63;5.65;;;;;;;;;;5034418;28;20230;-79
2022/03/08 04:00:40;;;;;;;7.90;6.90;;;;;;;;;;5034346;28;20210;-80
2022/03/08 04:03:08;;;;;;;6.43;5.60;;;;;;;;;;5033809;28;20671;-78
2022/03/08 04:05:36;;;;;;;5.72;5.13;;;;;;;;;;5034214;28;20198;-78
2022/03/08 04:08:04;;;;;;;5.40;4.90;;;;;;;;;;5033827;28;20639;-79
2022/03/08 04:10:31;;;;;;;6.75;5.43;;;;;;;;;;5034265;28;20210;-78
2022/03/08 04:12:59;;;;;;;5.07;4.60;;;;;;;;;;5033862;28;20210;-80
2022/03/08 04:15:27;;;;;;;8.80;5.55;;;;;;;;;;5033753;28;20222;-79
2022/03/08 04:17:54;;;;;;;5.63;4.10;;;;;;;;;;5034424;28;20313;-78
2022/03/08 04:20:21;;;;;;;5.55;4.40;;;;;;;;;;5033641;28;20202;-78
2022/03/08 04:22:50;;;;;;;4.45;4.05;;;;;;;;;;5034032;28;20209;-78
2022/03/08 04:25:17;;;;;;;4.80;4.40;;;;;;;;;;5033323;28;20202;-80
2022/03/08 04:27:44;;;;;;;5.00;4.55;;;;;;;;;;5033880;28;20230;-79
2022/03/08 04:30:12;;;;;;;5.80;5.28;;;;;;;;;;5033204;28;20217;-79
2022/03/08 04:32:40;;;;;;;5.90;4.95;;;;;;;;;;5033950;28;20213;-79
2022/03/08 04:35:08;;;;;;;4.90;4.32;;;;;;;;;;5033344;28;20234;-81
2022/03/08 04:37:35;;;;;;;5.80;5.22;;;;;;;;;;5033998;28;20241;-79
2022/03/08 04:40:05;;;;;;;5.53;4.93;;;;;;;;;;5033768;28;20202;-78
2022/03/08 04:42:32;;;;;;;4.38;3.97;;;;;;;;;;5033253;28;20218;-78
2022/03/08 04:45:00;;;;;;;5.00;4.50;;;;;;;;;;5032996;28;20206;-78
2022/03/08 04:47:27;;;;;;;4.30;3.90;;;;;;;;;;5033229;28;20202;-78
2022/03/08 04:49:54;;;;;;;4.20;3.78;;;;;;;;;;5033285;28;20205;-79
2022/03/08 04:52:21;;;;;;;4.78;4.38;;;;;;;;;;5032634;28;20198;-77
2022/03/08 04:54:48;;;;;;;4.97;4.53;;;;;;;;;;5033539;28;20284;-77
2022/03/08 04:57:17;;;;;;;4.07;3.78;;;;;;;;;;5033372;28;20209;-78
2022/03/08 04:59:44;;;;;;;3.38;3.13;;;;;;;;;;5032410;28;20283;-78
2022/03/08 05:02:12;;;;;;;5.53;4.57;;;;;;;;;;5032709;28;20716;-79
2022/03/08 05:04:39;;;;;;;4.72;4.28;;;;;;;;;;5032964;28;20628;-78
2022/03/08 05:07:06;;;;;;;5.07;4.57;;;;;;;;;;5032824;28;20210;-78
2022/03/08 05:09:33;;;;;;;4.78;4.22;;;;;;;;;;5032797;28;20714;-79
2022/03/08 05:12:01;;;;;;;4.80;4.35;;;;;;;;;;5032682;28;20620;-78
2022/03/08 05:14:31;;;;;;;4.85;4.38;;;;;;;;;;5032506;28;20674;-79
2022/03/08 05:16:58;;;;;;;5.97;5.38;;;;;;;;;;5032580;28;20213;-79
2022/03/08 05:19:25;;;;;;;6.50;4.38;;;;;;;;;;5032734;28;20231;-77
2022/03/08 05:21:53;;;;;;;4.75;4.20;;;;;;;;;;5032238;28;20647;-78
2022/03/08 05:24:20;;;;;;;5.30;4.80;;;;;;;;;;5032723;28;20202;-78
2022/03/08 05:26:47;;;;;;;5.55;5.10;;;;;;;;;;5032269;28;20194;-77
2022/03/08 05:29:15;;;;;;;4.72;4.32;;;;;;;;;;5031722;28;20238;-78
2022/03/08 05:31:43;;;;;;;4.13;3.83;;;;;;;;;;5031533;28;20209;-78
2022/03/08 05:34:11;;;;;;;4.13;3.80;;;;;;;;;;5032261;28;20213;-79
2022/03/08 05:36:38;;;;;;;3.95;3.65;;;;;;;;;;5032603;28;20702;-78
2022/03/08 05:39:06;;;;;;;4.18;3.80;;;;;;;;;;5032225;28;20246;-77
2022/03/08 05:41:34;;;;;;;5.70;5.10;;;;;;;;;;5032207;28;20202;-78
2022/03/08 05:44:01;;;;;;;4.95;4.50;;;;;;;;;;5031646;28;20211;-78
2022/03/08 05:46:28;;;;;;;4.32;3.92;;;;;;;;;;5031778;28;20206;-79
2022/03/08 05:48:57;;;;;;;5.18;4.25;;;;;;;;;;5034643;28;20218;-78
2022/03/08 05:51:24;;;;;;;4.45;4.05;;;;;;;;;;5033999;28;20198;-79
2022/03/08 05:53:51;;;;;;;4.75;4.30;;;;;;;;;;5032804;28;20206;-80
2022/03/08 05:56:19;;;;;;;5.65;5.00;;;;;;;;;;5031823;28;20233;-79
2022/03/08 05:58:46;;;;;;;4.72;4.32;;;;;;;;;;5032228;28;20241;-79
2022/03/08 06:01:13;;;;;;;5.05;4.63;;;;;;;;;;5032153;28;20593;-79
2022/03/08 06:03:41;;;;;;;4.85;4.35;;;;;;;;;;5032207;28;20208;-79
2022/03/08 06:06:09;;;;;;;5.13;4.63;;;;;;;;;;5032215;28;20655;-79
2022/03/08 06:08:36;;;;;;;5.10;4.60;;;;;;;;;;5041267;28;20244;-79
2022/03/08 06:11:04;;;;;;;5.88;5.28;;;;;;;;;;5032195;28;20209;-79
2022/03/08 06:13:31;;;;;;;4.43;4.03;;;;;;;;;;5031918;28;20218;-78
2022/03/08 06:15:58;;;;;;;4.38;3.83;;;;;;;;;;5032044;28;20234;-78
2022/03/08 06:18:26;;;;;;;5.25;4.75;;;;;;;;;;5032565;28;20237;-79
2022/03/08 06:20:53;;;;;;;5.18;4.63;;;;;;;;;;5032159;28;20668;-80
2022/03/08 06:23:22;;;;;;;5.63;4.95;;;;;;;;;;5031948;28;20601;-79
2022/03/08 06:25:49;;;;;;;5.40;4.90;;;;;;;;;;5032091;28;20722;-78
2022/03/08 06:28:16;;;;;;;6.72;5.75;;;;;;;;;;5032250;28;20237;-80
2022/03/08 06:30:44;;;;;;;5.90;5.30;;;;;;;;;;5032227;28;20217;-79
2022/03/08 06:33:12;;;;;;;6.22;5.63;;;;;;;;;;5031750;28;20206;-79
2022/03/08 06:35:39;;;;;;;7.90;6.18;;;;;;;;;;5032090;28;20230;-78
2022/03/08 06:38:06;;;;;;;6.22;5.25;;;;;;;;;;5032199;28;20237;-79
2022/03/08 06:40:35;;;;;;;4.97;4.43;;;;;;;;;;5032119;28;20229;-80
2022/03/08 06:43:02;;;;;;;5.25;4.63;;;;;;;;;;5031599;28;20210;-80
2022/03/08 06:45:30;;;;;;;4.55;4.07;;;;;;;;;;5031981;28;20557;-79
2022/03/08 06:47:57;;;;;;;4.80;4.40;;;;;;;;;;5031974;28;20226;-80
2022/03/08 06:50:25;;;;;;;6.03;5.25;;;;;;;;;;5031991;28;20206;-78
2022/03/08 06:52:52;;;;;;;3.88;3.58;;;;;;;;;;5031585;28;20305;-80
2022/03/08 06:55:19;;;;;;;4.18;3.78;;;;;;;;;;5032335;28;20248;-79
2022/03/08 06:57:48;;;;;;;4.50;4.10;;;;;;;;;;5031851;28;20234;-79
2022/03/08 07:00:17;;;;;;;4.00;3.70;;;;;;;;;;5034710;28;20202;-80
2022/03/08 07:02:44;;;;;;;3.35;3.15;;;;;;;;;;5035726;28;20213;-81
2022/03/08 07:05:11;;;;;;;3.00;2.80;;;;;;;;;;5036260;28;20214;-79
2022/03/08 07:07:39;;;;;;;3.42;3.13;;;;;;;;;;5035774;28;20208;-79
2022/03/08 07:10:07;;;;;;;4.00;3.30;;;;;;;;;;5037721;28;20639;-80
2022/03/08 07:12:35;;;;;;;3.75;3.45;;;;;;;;;;5037141;28;20214;-81
2022/03/08 07:15:04;;;;;;;3.63;3.33;;;;;;;;;;5036396;28;20213;-80
2022/03/08 07:17:31;;;;;;;4.97;3.95;;;;;;;;;;5036831;28;20233;-81
2022/03/08 07:19:59;;;;;;;3.58;3.22;;;;;;;;;;5036291;28;20210;-80
2022/03/08 07:22:26;;;;;;;3.70;3.40;;;;;;;;;;5036221;28;20206;-82
2022/03/08 07:24:54;;;;;;;3.42;3.13;;;;;;;;;;5037801;28;20273;-81
2022/03/08 07:27:21;;;;;;;5.38;4.50;;;;;;;;;;5036114;28;20229;-81
2022/03/08 07:29:48;;;;;;;9.57;4.72;;;;;;;;;;5036331;28;20284;-80
2022/03/08 07:32:17;;;;;;;6.22;5.63;;;;;;;;;;5035389;28;20210;-81
2022/03/08 07:34:44;;;;;;;4.75;4.28;;;;;;;;;;5035775;28;20206;-80
2022/03/08 07:37:12;;;;;;;5.18;4.43;;;;;;;;;;5035779;28;20230;-80
2022/03/08 07:39:39;;;;;;;5.60;4.85;;;;;;;;;;5036014;28;20225;-80
2022/03/08 07:42:07;;;;;;;5.65;4.80;;;;;;;;;;5035406;28;20210;-81
2022/03/08 07:44:36;;;;;;;4.57;3.97;;;;;;;;;;5036628;28;20213;-81
2022/03/08 07:47:05;;;;;;;5.57;4.70;;;;;;;;;;5035255;28;20210;-81
2022/03/08 07:49:33;;;;;;;5.18;4.68;;;;;;;;;;5035205;28;20230;-80
2022/03/08 07:52:01;;;;;;;4.82;4.32;;;;;;;;;;5034659;28;20214;-79
2022/03/08 07:54:28;;;;;;;5.45;4.25;;;;;;;;;;5036188;28;20206;-80
2022/03/08 07:56:55;;;;;;;5.03;4.53;;;;;;;;;;5034826;28;20230;-79
2022/03/08 07:59:23;;;;;;;5.85;4.47;;;;;;;;;;5034515;28;20241;-80
2022/03/08 08:01:50;;;;;;;4.07;3.65;;;;;;;;;;5034317;28;20214;-81
2022/03/08 08:04:17;;;;;;;4.95;3.75;;;;;;;;;;5034513;28;20213;-80
2022/03/08 08:06:46;;;;;;;5.88;5.38;;;;;;;;;;5034734;28;20206;-80
2022/03/08 08:09:13;;;;;;;5.55;5.05;;;;;;;;;;5034299;28;20276;-80
2022/03/08 08:11:41;;;;;;;6.80;6.18;;;;;;;;;;5033879;28;20217;-81
2022/03/08 08:14:08;;;;;;;7.47;6.47;;;;;;;;;;5034088;28;20241;-79
2022/03/08 08:16:35;;;;;;;5.45;5.05;;;;;;;;;;5034448;28;20237;-81
2022/03/08 08:19:03;;;;;;;5.53;4.95;;;;;;;;;;5034130;28;20237;-79
2022/03/08 08:21:30;;;;;;;5.75;5.15;;;;;;;;;;5034629;28;20202;-81
2022/03/08 08:24:00;;;;;;;5.30;4.80;;;;;;;;;;5034207;28;20225;-81
2022/03/08 08:26:28;;;;;;;4.82;4.30;;;;;;;;;;5034390;28;20715;-80
2022/03/08 08:28:55;;;;;;;5.65;5.15;;;;;;;;;;5033457;28;20230;-81
2022/03/08 08:31:24;;;;;;;6.05;5.45;;;;;;;;;;5034227;28;20237;-80
2022/03/08 08:33:51;;;;;;;7.35;6.63;;;;;;;;;;5032867;28;20206;-81
2022/03/08 08:36:20;;;;;;;7.18;6.28;;;;;;;;;;5034326;28;20747;-80
2022/03/08 08:38:47;;;;;;;6.38;5.75;;;;;;;;;;5033975;28;20234;-81
2022/03/08 08:41:16;;;;;;;5.57;5.03;;;;;;;;;;5034347;28;20210;-82
2022/03/08 08:43:43;;;;;;;5.13;4.63;;;;;;;;;;5033483;28;20770;-81
2022/03/08 08:46:11;;;;;;;4.93;4.45;;;;;;;;;;5034327;28;20753;-82
2022/03/08 08:48:38;;;;;;;6.68;5.65;;;;;;;;;;5033894;28;20316;-81
2022/03/08 08:51:05;;;;;;;5.63;4.65;;;;;;;;;;5033773;28;20221;-81
2022/03/08 08:53:33;;;;;;;4.72;4.32;;;;;;;;;;5033625;28;20210;-80
2022/03/08 08:56:00;;;;;;;5.43;4.93;;;;;;;;;;5033828;28;20209;-82
2022/03/08 08:58:29;;;;;;;4.93;4.47;;;;;;;;;;5033595;28;20234;-81
2022/03/08 09:00:56;;;;;;;5.63;5.00;;;;;;;;;;5033723;28;20209;-82
2022/03/08 09:03:23;;;;;;;6.25;5.70;;;;;;;;;;5033664;28;20210;-81
2022/03/08 09:05:50;;;;;;;6.20;4.82;;;;;;;;;;5034185;28;20213;-82
2022/03/08 09:08:23;;;;;;;6.13;5.30;;;;;;;;;;5034275;28;20300;-81
2022/03/08 09:10:51;;;;;;;4.78;4.38;;;;;;;;;;5033979;28;20245;-82
2022/03/08 09:13:18;;;;;;;5.65;4.63;;;;;;;;;;5033152;28;20265;-81
2022/03/08 09:15:47;;;;;;;4.25;3.85;;;;;;;;;;5033217;28;20206;-82
2022/03/08 09:18:15;;;;;;;4.53;4.13;;;;;;;;;;5035492;28;20309;-80
2022/03/08 09:20:43;;;;;;;3.28;2.97;;;;;;;;;;5037932;28;20198;-83
2022/03/08 09:23:12;;;;;;;3.83;3.53;;;;;;;;;;5034088;28;20550;-82
2022/03/08 09:25:39;;;;;;;5.75;5.15;;;;;;;;;;5034210;28;20237;-83
2022/03/08 09:28:07;;;;;;;4.20;3.88;;;;;;;;;;5033653;28;20222;-82
2022/03/08 09:30:35;;;;;;;5.00;4.45;;;;;;;;;;5034145;28;20199;-82
2022/03/08 09:33:04;;;;;;;5.45;4.80;;;;;;;;;;5033936;28;20290;-82
2022/03/08 09:35:32;;;;;;;5.63;4.63;;;;;;;;;;5034360;28;20206;-82
2022/03/08 09:37:59;;;;;;;5.45;4.90;;;;;;;;;;5034393;28;20233;-83
2022/03/08 09:40:27;;;;;;;5.47;4.97;;;;;;;;;;5034276;28;20206;-82
2022/03/08 09:42:54;;;;;;;4.82;4.35;;;;;;;;;;5034793;28;20565;-83
2022/03/08 09:45:22;;;;;;;5.57;5.18;;;;;;;;;;5033917;28;20214;-82
2022/03/08 09:47:50;;;;;;;7.53;5.57;;;;;;;;;;5033089;28;20218;-81
2022/03/08 09:50:19;;;;;;;5.32;3.95;;;;;;;;;;5033724;28;20206;-83
2022/03/08 09:52:46;;;;;;;3.90;3.60;;;;;;;;;;5034235;28;20202;-82
2022/03/08 09:55:17;;;;;;;5.53;4.68;;;;;;;;;;5033754;28;20214;-82
2022/03/08 09:57:45;;;;;;;3.78;3.40;;;;;;;;;;5033985;28;20253;-80
2022/03/08 10:00:14;;;;;;;4.60;4.15;;;;;;;;;;5033077;28;20217;-82
2022/03/08 10:02:50;;;;;;;4.65;3.90;;;;;;;;;;5037199;28;20206;-82
2022/03/08 10:05:24;;;;;;;4.10;3.72;;;;;;;;;;5035776;28;20628;-83
2022/03/08 10:08:11;;;;;;;2.97;2.47;;;;;;;;;;5035573;28;20230;-82
2022/03/08 10:10:53;;;;;;;3.55;3.25;;;;;;;;;;5032128;28;20297;-82
2022/03/08 10:13:22;;;;;;;4.30;3.15;;;;;;;;;;5034286;28;20264;-82
2022/03/08 10:16:07;;;;;;;7.32;3.67;;;;;;;;;;5036251;28;20232;-82
2022/03/08 10:18:36;;;;;;;3.05;2.83;;;;;;;;;;5035950;28;20278;-82
2022/03/08 10:21:05;;;;;;;2.70;2.50;;;;;;;;;;5028395;28;20267;-82
2022/03/08 10:23:41;;;;;;;3.45;3.08;;;;;;;;;;5038484;28;20272;-82
2022/03/08 10:26:13;;;;;;;4.70;4.30;;;;;;;;;;5034272;28;20228;-82
2022/03/08 10:28:48;;;;;;;2.75;2.55;;;;;;;;;;5029571;28;20325;-83
2022/03/08 10:31:16;;;;;;;3.67;3.10;;;;;;;;;;5034486;28;20210;-82
2022/03/08 10:33:44;;;;;;;3.78;3.47;;;;;;;;;;5035676;28;20214;-82
2022/03/08 10:36:18;;;;;;;3.33;3.03;;;;;;;;;;5037876;28;20214;-81
2022/03/08 10:39:07;;;;;;;3.53;3.13;;;;;;;;;;5038222;28;20230;-82
2022/03/08 10:41:36;;;;;;;2.90;2.70;;;;;;;;;;5031529;28;20224;-82
2022/03/08 10:44:03;;;;;;;3.25;2.92;;;;;;;;;;5033842;28;20662;-82
2022/03/08 10:46:30;;;;;;;3.30;3.00;;;;;;;;;;5039511;28;20217;-83
2022/03/08 10:48:58;;;;;;;4.88;3.60;;;;;;;;;;5038393;28;20226;-82
2022/03/08 10:51:26;;;;;;;3.38;3.08;;;;;;;;;;5031418;28;20213;-83
2022/03/08 10:53:54;;;;;;;2.00;1.80;;;;;;;;;;5031001;28;20206;-82
2022/03/08 10:56:24;;;;;;;2.08;1.98;;;;;;;;;;5037311;28;20202;-83
2022/03/08 10:58:53;;;;;;;1.92;1.83;;;;;;;;;;5037124;28;20222;-83
2022/03/08 11:01:21;;;;;;;2.60;2.40;;;;;;;;;;5037754;28;20593;-82
2022/03/08 11:04:00;;;;;;;3.80;3.40;;;;;;;;;;5037283;28;20694;-82
2022/03/08 11:06:29;;;;;;;2.17;2.08;;;;;;;;;;5036956;28;20202;-84
2022/03/08 11:08:57;;;;;;;2.80;2.60;;;;;;;;;;5038059;28;20230;-82
2022/03/08 11:11:24;;;;;;;2.22;2.03;;;;;;;;;;5037654;28;20206;-83
2022/03/08 11:13:52;;;;;;;1.80;1.70;;;;;;;;;;5036895;28;20198;-83
2022/03/08 11:16:20;;;;;;;1.95;1.85;;;;;;;;;;5037018;28;20769;-82
2022/03/08 11:18:51;;;;;;;2.20;2.00;;;;;;;;;;5037363;28;20230;-83
2022/03/08 11:21:21;;;;;;;2.47;2.28;;;;;;;;;;5037422;28;20214;-82
2022/03/08 11:23:50;;;;;;;1.70;1.60;;;;;;;;;;5036820;28;20245;-83
2022/03/08 11:26:17;;;;;;;1.60;1.50;;;;;;;;;;5036466;28;20202;-82
2022/03/08 11:28:47;;;;;;;1.67;1.52;;;;;;;;;;5036811;28;20225;-82
2022/03/08 11:31:18;;;;;;;1.98;1.70;;;;;;;;;;5037300;28;20297;-83
2022/03/08 11:33:55;;;;;;;1.10;1.00;;;;;;;;;;5036559;28;20683;-83
2022/03/08 11:36:27;;;;;;;1.65;1.55;;;;;;;;;;5036604;28;20206;-83
2022/03/08 11:39:19;;;;;;;1.10;1.10;;;;;;;;;;5048780;28;20245;-82
2022/03/08 11:41:49;;;;;;;1.20;1.20;;;;;;;;;;5048579;28;20207;-82
2022/03/08 11:44:26;;;;;;;1.40;1.30;;;;;;;;;;5052322;28;20203;-82
2022/03/08 11:47:13;;;;;;;2.05;1.63;;;;;;;;;;5046949;28;20584;-82
2022/03/08 11:49:53;;;;;;;2.92;1.88;;;;;;;;;;5038469;28;20226;-83
2022/03/08 11:52:26;;;;;;;1.10;1.10;;;;;;;;;;5040146;28;20716;-81
2022/03/08 11:54:58;;;;;;;1.67;1.58;;;;;;;;;;5038398;28;20256;-83
2022/03/08 11:57:58;;;;;;;1.55;1.45;;;;;;;;;;5038960;28;20212;-82
2022/03/08 12:00:36;;;;;;;1.63;1.52;;;;;;;;;;5037965;28;20206;-83
2022/03/08 12:03:05;;;;;;;1.58;1.48;;;;;;;;;;5037785;28;20229;-84
2022/03/08 12:06:04;;;;;;;1.85;1.75;;;;;;;;;;5038308;28;20202;-81
2022/03/08 12:09:07;;;;;;;2.00;1.70;;;;;;;;;;5042173;28;20253;-83
2022/03/08 12:11:52;;;;;;;1.48;1.38;;;;;;;;;;5050060;28;20235;-83
2022/03/08 12:14:23;;;;;;;1.98;1.88;;;;;;;;;;5047972;28;20206;-84
2022/03/08 12:16:52;;;;;;;1.20;1.20;;;;;;;;;;5033583;28;20206;-83
2022/03/08 12:19:32;;;;;;;1.85;1.75;;;;;;;;;;5037739;28;20222;-83
2022/03/08 12:22:00;;;;;;;1.88;1.77;;;;;;;;;;5037741;28;20206;-83
2022/03/08 12:24:29;;;;;;;1.30;1.30;;;;;;;;;;5038560;28;20213;-82
2022/03/08 12:27:04;;;;;;;1.63;1.52;;;;;;;;;;5037881;28;20210;-83
2022/03/08 12:29:36;;;;;;;1.60;1.50;;;;;;;;;;5034655;28;20233;-84
2022/03/08 12:32:33;;;;;;;1.63;1.52;;;;;;;;;;5037237;28;20256;-83
2022/03/08 12:35:08;;;;;;;1.95;1.70;;;;;;;;;;5037200;28;20250;-83
2022/03/08 12:37:45;;;;;;;1.92;1.80;;;;;;;;;;5038075;28;20202;-83
2022/03/08 12:40:25;;;;;;;1.70;1.60;;;;;;;;;;5036335;28;20202;-83
2022/03/08 12:42:56;;;;;;;2.83;1.63;;;;;;;;;;5035838;28;20264;-83
2022/03/08 12:45:26;;;;;;;2.28;2.08;;;;;;;;;;5036058;28;20206;-83
2022/03/08 12:47:56;;;;;;;1.60;1.50;;;;;;;;;;5036141;28;20218;-83
2022/03/08 12:50:25;;;;;;;1.73;1.42;;;;;;;;;;5030430;28;20240;-82
2022/03/08 12:52:55;;;;;;;2.10;2.00;;;;;;;;;;5030325;28;20206;-83
2022/03/08 12:55:27;;;;;;;1.98;1.88;;;;;;;;;;5036991;28;20333;-82
2022/03/08 12:57:57;;;;;;;1.65;1.55;;;;;;;;;;5035357;28;20233;-83
2022/03/08 13:00:34;;;;;;;2.25;1.83;;;;;;;;;;5036026;28;20251;-82
2022/03/08 13:03:03;;;;;;;1.15;1.10;;;;;;;;;;5034536;28;20198;-82
2022/03/08 13:05:32;;;;;;;1.50;1.40;;;;;;;;;;5035681;28;20549;-83
2022/03/08 13:08:00;;;;;;;1.90;1.80;;;;;;;;;;5032133;28;20226;-83
2022/03/08 13:10:29;;;;;;;2.15;1.90;;;;;;;;;;5035371;28;20234;-83
2022/03/08 13:13:02;;;;;;;2.05;1.90;;;;;;;;;;5035784;28;20206;-83
2022/03/08 13:15:30;;;;;;;2.30;1.90;;;;;;;;;;5034949;28;20206;-83
2022/03/08 13:17:59;;;;;;;1.42;1.33;;;;;;;;;;5036874;28;20233;-83
2022/03/08 13:20:37;;;;;;;2.00;1.90;;;;;;;;;;5035972;28;20202;-84
2022/03/08 13:23:10;;;;;;;1.73;1.63;;;;;;;;;;5040268;28;20205;-82
2022/03/08 13:25:39;;;;;;;1.75;1.65;;;;;;;;;;5037121;28;20202;-82
2022/03/08 13:28:11;;;;;;;2.22;2.08;;;;;;;;;;5035522;28;20218;-87
2022/03/08 13:30:41;;;;;;;1.70;1.60;;;;;;;;;;5034531;28;20225;-82
2022/03/08 13:33:24;;;;;;;1.60;1.50;;;;;;;;;;5033778;28;20221;-82
2022/03/08 13:35:55;;;;;;;2.20;2.00;;;;;;;;;;5033626;28;20256;-82
2022/03/08 13:38:25;;;;;;;1.98;1.85;;;;;;;;;;5033079;28;20230;-82
2022/03/08 13:40:53;;;;;;;3.30;2.05;;;;;;;;;;5034029;28;20729;-81
2022/03/08 13:43:25;;;;;;;2.40;2.20;;;;;;;;;;5032739;28;20214;-83
2022/03/08 13:45:53;;;;;;;2.30;1.95;;;;;;;;;;5034527;28;20234;-82
2022/03/08 13:48:26;;;;;;;2.03;1.67;;;;;;;;;;5033198;28;20253;-81
2022/03/08 13:50:56;;;;;;;2.20;2.00;;;;;;;;;;5033361;28;20752;-82
2022/03/08 13:53:24;;;;;;;1.65;1.55;;;;;;;;;;5033785;28;20202;-82
2022/03/08 13:55:56;;;;;;;2.22;1.73;;;;;;;;;;5033833;28;20297;-82
2022/03/08 13:58:27;;;;;;;1.80;1.70;;;;;;;;;;5033570;28;20230;-82
2022/03/08 14:00:54;;;;;;;2.20;2.05;;;;;;;;;;5033730;28;20658;-81
2022/03/08 14:03:23;;;;;;;1.83;1.73;;;;;;;;;;5032895;28;20198;-82
2022/03/08 14:05:59;;;;;;;1.60;1.50;;;;;;;;;;5033517;28;20207;-81
2022/03/08 14:08:32;;;;;;;2.20;2.00;;;;;;;;;;5033099;28;20230;-82
2022/03/08 14:11:03;;;;;;;1.73;1.63;;;;;;;;;;5033369;28;20237;-83
2022/03/08 14:13:34;;;;;;;2.03;1.88;;;;;;;;;;5033502;28;20210;-82
2022/03/08 14:16:05;;;;;;;1.83;1.70;;;;;;;;;;5034591;28;20198;-81
2022/03/08 14:18:33;;;;;;;1.75;1.65;;;;;;;;;;5034392;28;20226;-83
2022/03/08 14:21:03;;;;;;;2.60;1.88;;;;;;;;;;5034121;28;20217;-82
2022/03/08 14:23:42;;;;;;;2.75;2.38;;;;;;;;;;5033207;28;20907;-82
2022/03/08 14:26:11;;;;;;;2.95;2.65;;;;;;;;;;5033035;28;20206;-82
2022/03/08 14:28:55;;;;;;;2.75;1.85;;;;;;;;;;5033496;28;20234;-82
2022/03/08 14:31:29;;;;;;;2.17;2.00;;;;;;;;;;5027073;28;20218;-82
2022/03/08 14:34:04;;;;;;;1.90;1.80;;;;;;;;;;5033213;28;20206;-80
2022/03/08 14:36:34;;;;;;;2.63;2.42;;;;;;;;;;5033127;28;20210;-81
2022/03/08 14:39:13;;;;;;;2.40;2.20;;;;;;;;;;5032587;28;20222;-82
2022/03/08 14:41:42;;;;;;;2.33;1.98;;;;;;;;;;5032755;28;20210;-81
2022/03/08 14:44:11;;;;;;;2.85;2.40;;;;;;;;;;5032333;28;20655;-81
2022/03/08 14:46:38;;;;;;;2.60;2.40;;;;;;;;;;5032966;28;20202;-81
2022/03/08 14:49:06;;;;;;;3.20;2.63;;;;;;;;;;5032296;28;20222;-81
2022/03/08 14:51:33;;;;;;;2.35;2.20;;;;;;;;;;5032656;28;20280;-81
2022/03/08 14:54:02;;;;;;;3.10;2.33;;;;;;;;;;5033414;28;20412;-82
2022/03/08 14:56:29;;;;;;;2.50;2.30;;;;;;;;;;5033374;28;20209;-81